createdAt,value
2018-09-28T00:00:22.176Z,1032.53
2018-09-28T00:01:22.169Z,1032.51
2018-09-28T00:02:22.162Z,1032.54
2018-09-28T00:03:22.156Z,1032.5
2018-09-28T00:04:22.147Z,1032.52
2018-09-28T00:05:22.141Z,1032.53
2018-09-28T00:06:22.134Z,1032.53
2018-09-28T00:07:22.126Z,1032.53
2018-09-28T00:08:22.117Z,1032.54
2018-09-28T00:09:22.111Z,1032.57
2018-09-28T00:10:22.103Z,1032.57
2018-09-28T00:11:22.097Z,1032.59
2018-09-28T00:12:22.088Z,1032.57
2018-09-28T00:13:22.080Z,1032.59
2018-09-28T00:14:22.078Z,1032.6
2018-09-28T00:15:22.065Z,1032.64
2018-09-28T00:16:22.057Z,1032.63
2018-09-28T00:17:22.053Z,1032.62
2018-09-28T00:18:22.043Z,1032.64
2018-09-28T00:19:22.035Z,1032.6
2018-09-28T00:20:22.028Z,1032.63
2018-09-28T00:21:22.023Z,1032.6
2018-09-28T00:22:22.012Z,1032.6
2018-09-28T00:23:22.005Z,1032.59
2018-09-28T00:24:21.998Z,1032.6
2018-09-28T00:25:21.990Z,1032.59
2018-09-28T00:26:21.982Z,1032.65
2018-09-28T00:27:21.975Z,1032.63
2018-09-28T00:28:21.969Z,1032.63
2018-09-28T00:29:21.960Z,1032.58
2018-09-28T00:30:21.955Z,1032.6
2018-09-28T00:31:21.944Z,1032.59
2018-09-28T00:32:21.936Z,1032.56
2018-09-28T00:33:21.928Z,1032.59
2018-09-28T00:34:21.931Z,1032.59
2018-09-28T00:35:21.914Z,1032.57
2018-09-28T00:36:21.907Z,1032.54
2018-09-28T00:37:21.898Z,1032.51
2018-09-28T00:38:21.891Z,1032.54
2018-09-28T00:39:21.882Z,1032.51
2018-09-28T00:40:21.874Z,1032.49
2018-09-28T00:41:21.868Z,1032.49
2018-09-28T00:42:21.860Z,1032.49
2018-09-28T00:43:21.853Z,1032.54
2018-09-28T00:44:21.845Z,1032.53
2018-09-28T00:45:21.842Z,1032.56
2018-09-28T00:46:21.829Z,1032.57
2018-09-28T00:47:21.821Z,1032.59
2018-09-28T00:48:21.813Z,1032.63
2018-09-28T00:49:21.805Z,1032.61
2018-09-28T00:50:21.798Z,1032.65
2018-09-28T00:51:21.790Z,1032.65
2018-09-28T00:52:21.781Z,1032.62
2018-09-28T00:53:21.774Z,1032.63
2018-09-28T00:54:21.766Z,1032.63
2018-09-28T00:55:21.758Z,1032.62
2018-09-28T00:56:21.750Z,1032.64
2018-09-28T00:57:21.743Z,1032.63
2018-09-28T00:58:21.735Z,1032.62
2018-09-28T00:59:21.727Z,1032.65
2018-09-28T01:00:21.721Z,1032.67
2018-09-28T01:01:21.715Z,1032.7
2018-09-28T01:02:21.702Z,1032.68
2018-09-28T01:03:21.694Z,1032.63
2018-09-28T01:04:21.687Z,1032.68
2018-09-28T01:05:21.679Z,1032.67
2018-09-28T01:06:21.671Z,1032.67
2018-09-28T01:07:21.663Z,1032.66
2018-09-28T01:08:21.658Z,1032.69
2018-09-28T01:09:21.648Z,1032.66
2018-09-28T01:10:21.642Z,1032.72
2018-09-28T01:11:21.630Z,1032.72
2018-09-28T01:12:21.623Z,1032.73
2018-09-28T01:13:21.614Z,1032.73
2018-09-28T01:14:21.607Z,1032.73
2018-09-28T01:15:21.599Z,1032.74
2018-09-28T01:16:21.591Z,1032.75
2018-09-28T01:17:21.582Z,1032.78
2018-09-28T01:18:21.578Z,1032.77
2018-09-28T01:19:21.569Z,1032.75
2018-09-28T01:20:21.568Z,1032.74
2018-09-28T01:21:21.551Z,1032.73
2018-09-28T01:22:21.541Z,1032.74
2018-09-28T01:23:21.534Z,1032.7
2018-09-28T01:24:21.525Z,1032.7
2018-09-28T01:25:21.518Z,1032.69
2018-09-28T01:26:21.509Z,1032.69
2018-09-28T01:27:21.501Z,1032.67
2018-09-28T01:28:21.492Z,1032.68
2018-09-28T01:29:21.485Z,1032.68
2018-09-28T01:30:21.482Z,1032.65
2018-09-28T01:31:21.469Z,1032.65
2018-09-28T01:32:21.460Z,1032.67
2018-09-28T01:33:21.452Z,1032.67
2018-09-28T01:34:21.444Z,1032.68
2018-09-28T01:35:21.434Z,1032.71
2018-09-28T01:36:21.427Z,1032.71
2018-09-28T01:37:21.419Z,1032.75
2018-09-28T01:38:21.410Z,1032.74
2018-09-28T01:39:21.402Z,1032.67
2018-09-28T01:40:21.393Z,1032.69
2018-09-28T01:41:21.385Z,1032.71
2018-09-28T01:42:21.378Z,1032.69
2018-09-28T01:43:21.368Z,1032.68
2018-09-28T01:44:21.362Z,1032.69
2018-09-28T01:45:21.352Z,1032.68
2018-09-28T01:46:21.343Z,1032.67
2018-09-28T01:47:21.335Z,1032.7
2018-09-28T01:48:21.328Z,1032.69
2018-09-28T01:49:21.319Z,1032.73
2018-09-28T01:50:21.310Z,1032.72
2018-09-28T01:51:21.301Z,1032.7
2018-09-28T01:52:21.293Z,1032.74
2018-09-28T01:53:21.288Z,1032.66
2018-09-28T01:54:21.277Z,1032.66
2018-09-28T01:55:21.269Z,1032.66
2018-09-28T01:56:21.260Z,1032.69
2018-09-28T01:57:21.251Z,1032.72
2018-09-28T01:58:21.243Z,1032.7
2018-09-28T01:59:21.235Z,1032.74
2018-09-28T02:00:21.227Z,1032.72
2018-09-28T02:01:21.217Z,1032.74
2018-09-28T02:02:21.209Z,1032.74
2018-09-28T02:03:21.201Z,1032.77
2018-09-28T02:04:21.192Z,1032.76
2018-09-28T02:05:21.183Z,1032.74
2018-09-28T02:06:21.175Z,1032.78
2018-09-28T02:07:21.167Z,1032.74
2018-09-28T02:08:21.157Z,1032.74
2018-09-28T02:09:21.150Z,1032.72
2018-09-28T02:10:21.141Z,1032.76
2018-09-28T02:11:21.132Z,1032.77
2018-09-28T02:12:21.149Z,1032.81
2018-09-28T02:13:21.115Z,1032.78
2018-09-28T02:14:21.106Z,1032.83
2018-09-28T02:15:21.098Z,1032.84
2018-09-28T02:16:21.093Z,1032.79
2018-09-28T02:17:21.081Z,1032.81
2018-09-28T02:18:21.075Z,1032.8
2018-09-28T02:19:21.063Z,1032.84
2018-09-28T02:20:21.056Z,1032.83
2018-09-28T02:21:21.047Z,1032.84
2018-09-28T02:22:21.039Z,1032.83
2018-09-28T02:23:21.029Z,1032.83
2018-09-28T02:24:21.022Z,1032.79
2018-09-28T02:25:21.012Z,1032.82
2018-09-28T02:26:21.003Z,1032.88
2018-09-28T02:27:20.995Z,1032.82
2018-09-28T02:28:20.987Z,1032.81
2018-09-28T02:29:20.978Z,1032.82
2018-09-28T02:30:20.969Z,1032.82
2018-09-28T02:31:20.959Z,1032.82
2018-09-28T02:32:20.954Z,1032.84
2018-09-28T02:33:20.946Z,1032.85
2018-09-28T02:34:20.934Z,1032.83
2018-09-28T02:35:20.925Z,1032.85
2018-09-28T02:36:20.917Z,1032.81
2018-09-28T02:37:20.907Z,1032.83
2018-09-28T02:38:20.899Z,1032.79
2018-09-28T02:39:20.891Z,1032.8
2018-09-28T02:40:20.881Z,1032.81
2018-09-28T02:41:20.876Z,1032.8
2018-09-28T02:42:20.864Z,1032.79
2018-09-28T02:43:20.857Z,1032.79
2018-09-28T02:44:20.846Z,1032.77
2018-09-28T02:45:20.838Z,1032.73
2018-09-28T02:46:20.829Z,1032.8
2018-09-28T02:47:20.821Z,1032.79
2018-09-28T02:48:20.811Z,1032.77
2018-09-28T02:49:20.803Z,1032.73
2018-09-28T02:50:20.794Z,1032.72
2018-09-28T02:51:20.788Z,1032.74
2018-09-28T02:52:20.776Z,1032.73
2018-09-28T02:53:20.774Z,1032.75
2018-09-28T02:54:20.759Z,1032.72
2018-09-28T02:55:20.751Z,1032.68
2018-09-28T02:56:20.741Z,1032.68
2018-09-28T02:57:20.733Z,1032.64
2018-09-28T02:58:20.730Z,1032.64
2018-09-28T02:59:20.714Z,1032.6
2018-09-28T03:00:20.707Z,1032.6
2018-09-28T03:01:20.698Z,1032.54
2018-09-28T03:02:20.689Z,1032.55
2018-09-28T03:03:20.680Z,1032.48
2018-09-28T03:04:20.672Z,1032.48
2018-09-28T03:05:20.665Z,1032.55
2018-09-28T03:06:20.748Z,1032.5
2018-09-28T03:07:20.646Z,1032.49
2018-09-28T03:08:20.637Z,1032.48
2018-09-28T03:09:20.629Z,1032.48
2018-09-28T03:10:20.619Z,1032.47
2018-09-28T03:11:20.613Z,1032.5
2018-09-28T03:12:20.603Z,1032.47
2018-09-28T03:13:20.594Z,1032.45
2018-09-28T03:14:20.585Z,1032.42
2018-09-28T03:15:20.577Z,1032.46
2018-09-28T03:16:20.575Z,1032.49
2018-09-28T03:17:20.560Z,1032.44
2018-09-28T03:18:20.552Z,1032.48
2018-09-28T03:19:20.543Z,1032.48
2018-09-28T03:20:20.535Z,1032.48
2018-09-28T03:21:20.524Z,1032.46
2018-09-28T03:22:20.517Z,1032.51
2018-09-28T03:23:20.508Z,1032.48
2018-09-28T03:24:20.501Z,1032.45
2018-09-28T03:25:20.495Z,1032.46
2018-09-28T03:26:20.483Z,1032.45
2018-09-28T03:27:20.475Z,1032.45
2018-09-28T03:28:20.466Z,1032.47
2018-09-28T03:29:20.457Z,1032.42
2018-09-28T03:30:20.450Z,1032.36
2018-09-28T03:31:20.443Z,1032.36
2018-09-28T03:32:20.432Z,1032.36
2018-09-28T03:33:20.424Z,1032.33
2018-09-28T03:34:20.416Z,1032.33
2018-09-28T03:35:20.407Z,1032.3
2018-09-28T03:36:20.398Z,1032.3
2018-09-28T03:37:20.389Z,1032.33
2018-09-28T03:38:20.381Z,1032.32
2018-09-28T03:39:20.380Z,1032.32
2018-09-28T03:40:20.366Z,1032.33
2018-09-28T03:41:20.356Z,1032.37
2018-09-28T03:42:20.349Z,1032.39
2018-09-28T03:43:20.339Z,1032.38
2018-09-28T03:44:20.331Z,1032.39
2018-09-28T03:45:20.324Z,1032.4
2018-09-28T03:46:20.315Z,1032.36
2018-09-28T03:47:20.305Z,1032.4
2018-09-28T03:48:20.301Z,1032.41
2018-09-28T03:49:20.289Z,1032.43
2018-09-28T03:50:20.281Z,1032.43
2018-09-28T03:51:20.274Z,1032.43
2018-09-28T03:52:20.264Z,1032.43
2018-09-28T03:53:20.257Z,1032.45
2018-09-28T03:54:20.249Z,1032.42
2018-09-28T03:55:20.241Z,1032.47
2018-09-28T03:56:20.231Z,1032.44
2018-09-28T03:57:20.223Z,1032.43
2018-09-28T03:58:20.215Z,1032.46
2018-09-28T03:59:20.207Z,1032.45
2018-09-28T04:00:20.198Z,1032.49
2018-09-28T04:01:20.189Z,1032.43
2018-09-28T04:02:20.181Z,1032.45
2018-09-28T04:03:20.173Z,1032.45
2018-09-28T04:04:20.165Z,1032.49
2018-09-28T04:05:20.156Z,1032.48
2018-09-28T04:06:20.151Z,1032.5
2018-09-28T04:07:20.142Z,1032.46
2018-09-28T04:08:20.131Z,1032.47
2018-09-28T04:09:20.122Z,1032.44
2018-09-28T04:10:20.114Z,1032.49
2018-09-28T04:11:20.107Z,1032.5
2018-09-28T04:12:20.100Z,1032.49
2018-09-28T04:13:20.088Z,1032.48
2018-09-28T04:14:20.081Z,1032.49
2018-09-28T04:15:20.072Z,1032.5
2018-09-28T04:16:20.063Z,1032.49
2018-09-28T04:17:20.057Z,1032.53
2018-09-28T04:18:20.049Z,1032.53
2018-09-28T04:19:20.039Z,1032.56
2018-09-28T04:20:20.029Z,1032.55
2018-09-28T04:21:20.021Z,1032.51
2018-09-28T04:22:20.013Z,1032.54
2018-09-28T04:23:20.004Z,1032.59
2018-09-28T04:24:19.996Z,1032.6
2018-09-28T04:25:19.987Z,1032.6
2018-09-28T04:26:19.982Z,1032.61
2018-09-28T04:27:19.974Z,1032.62
2018-09-28T04:28:19.962Z,1032.64
2018-09-28T04:29:19.954Z,1032.67
2018-09-28T04:30:19.945Z,1032.67
2018-09-28T04:31:19.936Z,1032.66
2018-09-28T04:32:19.932Z,1032.7
2018-09-28T04:33:19.920Z,1032.68
2018-09-28T04:34:19.910Z,1032.7
2018-09-28T04:35:19.902Z,1032.69
2018-09-28T04:36:19.895Z,1032.73
2018-09-28T04:37:19.885Z,1032.69
2018-09-28T04:38:19.877Z,1032.71
2018-09-28T04:39:19.869Z,1032.7
2018-09-28T04:40:19.860Z,1032.73
2018-09-28T04:41:19.852Z,1032.74
2018-09-28T04:42:19.843Z,1032.74
2018-09-28T04:43:19.834Z,1032.78
2018-09-28T04:44:19.826Z,1032.79
2018-09-28T04:45:19.948Z,1032.78
2018-09-28T04:46:19.813Z,1032.82
2018-09-28T04:47:19.800Z,1032.86
2018-09-28T04:48:19.792Z,1032.88
2018-09-28T04:49:19.782Z,1032.89
2018-09-28T04:50:19.775Z,1032.87
2018-09-28T04:51:19.766Z,1032.89
2018-09-28T04:52:19.761Z,1032.92
2018-09-28T04:53:19.749Z,1032.96
2018-09-28T04:54:19.740Z,1032.97
2018-09-28T04:55:19.732Z,1033
2018-09-28T04:56:19.722Z,1032.98
2018-09-28T04:57:19.716Z,1033.04
2018-09-28T04:58:19.706Z,1033.02
2018-09-28T04:59:19.697Z,1033.05
2018-09-28T05:00:19.688Z,1033.03
2018-09-28T05:01:19.679Z,1033.04
2018-09-28T05:02:19.671Z,1033.08
2018-09-28T05:03:19.663Z,1033.05
2018-09-28T05:04:19.654Z,1033.05
2018-09-28T05:05:19.645Z,1033.04
2018-09-28T05:06:19.636Z,1033.09
2018-09-28T05:07:19.627Z,1033.11
2018-09-28T05:08:19.619Z,1033.11
2018-09-28T05:09:19.611Z,1033.11
2018-09-28T05:10:19.602Z,1033.08
2018-09-28T05:11:19.596Z,1033.1
2018-09-28T05:12:19.591Z,1033.14
2018-09-28T05:13:19.577Z,1033.16
2018-09-28T05:14:19.572Z,1033.13
2018-09-28T05:15:19.559Z,1033.15
2018-09-28T05:16:19.551Z,1033.19
2018-09-28T05:17:19.543Z,1033.18
2018-09-28T05:18:19.536Z,1033.16
2018-09-28T05:19:19.541Z,1033.17
2018-09-28T05:20:19.516Z,1033.16
2018-09-28T05:21:19.509Z,1033.14
2018-09-28T05:22:19.499Z,1033.13
2018-09-28T05:23:19.492Z,1033.13
2018-09-28T05:24:19.482Z,1033.08
2018-09-28T05:25:19.532Z,1033.07
2018-09-28T05:26:19.466Z,1033.01
2018-09-28T05:27:19.457Z,1032.95
2018-09-28T05:28:19.449Z,1032.89
2018-09-28T05:29:19.440Z,1032.75
2018-09-28T05:30:19.431Z,1032.67
2018-09-28T05:31:19.564Z,1032.51
2018-09-28T05:32:19.511Z,1032.49
2018-09-28T05:33:19.407Z,1032.4
2018-09-28T05:34:19.400Z,1032.31
2018-09-28T05:35:19.391Z,1032.29
2018-09-28T05:36:19.382Z,1032.26
2018-09-28T05:37:19.465Z,1032.17
2018-09-28T05:38:19.367Z,1032.05
2018-09-28T05:39:19.405Z,1031.97
2018-09-28T05:40:19.350Z,1031.93
2018-09-28T05:41:19.343Z,1031.89
2018-09-28T05:42:19.336Z,1031.88
2018-09-28T05:43:19.329Z,1031.8
2018-09-28T05:44:19.321Z,1031.78
2018-09-28T05:45:19.314Z,1031.71
2018-09-28T05:46:19.312Z,1031.62
2018-09-28T05:47:19.299Z,1031.55
2018-09-28T05:48:19.292Z,1031.43
2018-09-28T05:49:19.289Z,1031.36
2018-09-28T05:50:19.279Z,1031.32
2018-09-28T05:51:19.309Z,1031.3
2018-09-28T05:52:19.265Z,1031.33
2018-09-28T05:53:19.259Z,1031.37
2018-09-28T05:54:19.253Z,1031.37
2018-09-28T05:55:19.244Z,1031.39
2018-09-28T05:56:19.237Z,1031.39
2018-09-28T05:57:19.238Z,1031.41
2018-09-28T05:58:19.225Z,1031.45
2018-09-28T05:59:19.218Z,1031.5
2018-09-28T06:00:19.212Z,1031.52
2018-09-28T06:01:19.205Z,1031.52
2018-09-28T06:02:19.199Z,1031.55
2018-09-28T06:03:19.192Z,1031.51
2018-09-28T06:04:19.187Z,1031.52
2018-09-28T06:05:19.195Z,1031.52
2018-09-28T06:06:19.176Z,1031.57
2018-09-28T06:07:19.168Z,1031.62
2018-09-28T06:08:19.164Z,1031.66
2018-09-28T06:09:19.157Z,1031.7
2018-09-28T06:10:19.148Z,1031.74
2018-09-28T06:11:19.142Z,1031.79
2018-09-28T06:12:19.138Z,1031.82
2018-09-28T06:13:19.129Z,1031.86
2018-09-28T06:14:19.123Z,1031.86
2018-09-28T06:15:19.122Z,1031.9
2018-09-28T06:16:19.112Z,1031.9
2018-09-28T06:17:19.104Z,1031.95
2018-09-28T06:18:19.144Z,1032.04
2018-09-28T06:19:19.092Z,1032.04
2018-09-28T06:20:19.092Z,1032.06
2018-09-28T06:21:19.079Z,1032.1
2018-09-28T06:22:19.073Z,1032.09
2018-09-28T06:23:19.067Z,1032.13
2018-09-28T06:24:19.155Z,1032.12
2018-09-28T06:25:19.056Z,1032.14
2018-09-28T06:26:19.050Z,1032.16
2018-09-28T06:27:19.041Z,1032.2
2018-09-28T06:28:19.035Z,1032.18
2018-09-28T06:29:19.030Z,1032.2
2018-09-28T06:30:19.083Z,1032.19
2018-09-28T06:31:19.016Z,1032.17
2018-09-28T06:32:19.010Z,1032.18
2018-09-28T06:33:19.004Z,1032.21
2018-09-28T06:34:18.998Z,1032.2
2018-09-28T06:35:18.991Z,1032.2
2018-09-28T06:36:19.099Z,1032.24
2018-09-28T06:37:18.979Z,1032.24
2018-09-28T06:38:18.973Z,1032.24
2018-09-28T06:39:18.978Z,1032.27
2018-09-28T06:40:18.962Z,1032.29
2018-09-28T06:41:18.954Z,1032.3
2018-09-28T06:42:18.950Z,1032.26
2018-09-28T06:43:18.941Z,1032.29
2018-09-28T06:44:18.936Z,1032.26
2018-09-28T06:45:18.933Z,1032.28
2018-09-28T06:46:18.923Z,1032.29
2018-09-28T06:47:18.917Z,1032.3
2018-09-28T06:48:18.952Z,1032.31
2018-09-28T06:49:18.904Z,1032.32
2018-09-28T06:50:18.900Z,1032.3
2018-09-28T06:51:18.954Z,1032.33
2018-09-28T06:52:18.887Z,1032.29
2018-09-28T06:53:18.879Z,1032.3
2018-09-28T06:54:18.950Z,1032.29
2018-09-28T06:55:18.867Z,1032.31
2018-09-28T06:56:18.867Z,1032.31
2018-09-28T06:57:18.855Z,1032.32
2018-09-28T06:58:18.892Z,1032.38
2018-09-28T06:59:18.847Z,1032.38
2018-09-28T07:00:18.884Z,1032.4
2018-09-28T07:01:18.833Z,1032.37
2018-09-28T07:02:18.826Z,1032.45
2018-09-28T07:03:18.821Z,1032.38
2018-09-28T07:04:18.814Z,1032.37
2018-09-28T07:05:18.808Z,1032.3
2018-09-28T07:06:18.896Z,1032.4
2018-09-28T07:07:18.797Z,1032.36
2018-09-28T07:08:18.847Z,1032.35
2018-09-28T07:09:18.859Z,1032.37
2018-09-28T07:10:18.779Z,1032.36
2018-09-28T07:11:18.775Z,1032.38
2018-09-28T07:12:18.819Z,1032.36
2018-09-28T07:13:18.760Z,1032.35
2018-09-28T07:14:18.755Z,1032.3
2018-09-28T07:15:18.750Z,1032.28
2018-09-28T07:16:18.759Z,1032.18
2018-09-28T07:17:18.739Z,1032.09
2018-09-28T07:18:18.815Z,1032.06
2018-09-28T07:19:18.724Z,1032.05
2018-09-28T07:20:18.722Z,1032.02
2018-09-28T07:21:18.713Z,1032.04
2018-09-28T07:22:18.707Z,1032.05
2018-09-28T07:23:18.702Z,1032.03
2018-09-28T07:24:18.758Z,1032.13
2018-09-28T07:25:18.704Z,1032.19
2018-09-28T07:26:18.684Z,1032.19
2018-09-28T07:27:18.682Z,1032.25
2018-09-28T07:28:18.674Z,1032.24
2018-09-28T07:29:18.669Z,1032.25
2018-09-28T07:30:18.670Z,1032.17
2018-09-28T07:31:18.658Z,1032.14
2018-09-28T07:32:18.654Z,1032.1
2018-09-28T07:33:18.649Z,1032.12
2018-09-28T07:34:18.642Z,1032.09
2018-09-28T07:35:18.637Z,1032.23
2018-09-28T07:36:18.759Z,1032.27
2018-09-28T07:37:18.695Z,1032.4
2018-09-28T07:38:18.621Z,1032.37
2018-09-28T07:39:18.617Z,1032.49
2018-09-28T07:40:18.613Z,1032.54
2018-09-28T07:41:18.606Z,1032.6
2018-09-28T07:42:18.692Z,1032.6
2018-09-28T07:43:18.598Z,1032.55
2018-09-28T07:44:18.593Z,1032.4
2018-09-28T07:45:18.586Z,1032.34
2018-09-28T07:46:18.580Z,1032.33
2018-09-28T07:47:18.575Z,1032.36
2018-09-28T07:48:18.655Z,1032.46
2018-09-28T07:49:18.656Z,1032.45
2018-09-28T07:50:18.561Z,1032.5
2018-09-28T07:51:18.555Z,1032.56
2018-09-28T07:52:18.552Z,1032.57
2018-09-28T07:53:18.545Z,1032.7
2018-09-28T07:54:18.541Z,1032.78
2018-09-28T07:55:18.535Z,1032.78
2018-09-28T07:56:18.531Z,1032.75
2018-09-28T07:57:18.529Z,1032.78
2018-09-28T07:58:18.524Z,1032.79
2018-09-28T07:59:18.515Z,1032.85
2018-09-28T08:00:18.509Z,1032.85
2018-09-28T08:01:18.505Z,1032.86
2018-09-28T08:02:18.500Z,1032.9
2018-09-28T08:03:18.494Z,1032.89
2018-09-28T08:04:18.493Z,1032.96
2018-09-28T08:05:18.485Z,1033.03
2018-09-28T08:06:18.479Z,1033.12
2018-09-28T08:07:18.474Z,1033.12
2018-09-28T08:08:18.469Z,1033.14
2018-09-28T08:09:18.465Z,1033.27
2018-09-28T08:10:18.464Z,1033.24
2018-09-28T08:11:18.454Z,1033.2
2018-09-28T08:12:18.451Z,1033.22
2018-09-28T08:13:18.445Z,1033.24
2018-09-28T08:14:18.439Z,1033.26
2018-09-28T08:15:18.437Z,1033.36
2018-09-28T08:16:18.429Z,1033.45
2018-09-28T08:17:18.423Z,1033.64
2018-09-28T08:18:18.418Z,1033.31
2018-09-28T08:19:18.414Z,1033.52
2018-09-28T08:20:18.408Z,1033.43
2018-09-28T08:21:18.402Z,1033.41
2018-09-28T08:22:18.397Z,1033.29
2018-09-28T08:23:18.408Z,1033.24
2018-09-28T08:24:18.387Z,1033.21
2018-09-28T08:25:18.381Z,1033.29
2018-09-28T08:26:18.377Z,1033.29
2018-09-28T08:27:18.371Z,1033.22
2018-09-28T08:28:18.368Z,1033.27
2018-09-28T08:29:18.627Z,1033.24
2018-09-28T08:30:18.359Z,1033.31
2018-09-28T08:31:18.351Z,1033.16
2018-09-28T08:32:18.343Z,1033
2018-09-28T08:33:18.339Z,1032.94
2018-09-28T08:34:18.364Z,1032.97
2018-09-28T08:35:18.329Z,1032.9
2018-09-28T08:36:18.402Z,1032.8
2018-09-28T08:37:18.319Z,1032.76
2018-09-28T08:38:18.315Z,1032.68
2018-09-28T08:39:18.309Z,1032.72
2018-09-28T08:40:18.304Z,1032.68
2018-09-28T08:41:18.301Z,1032.54
2018-09-28T08:42:18.296Z,1032.51
2018-09-28T08:43:18.294Z,1032.63
2018-09-28T08:44:18.286Z,1032.65
2018-09-28T08:45:18.281Z,1032.77
2018-09-28T08:46:18.276Z,1033.01
2018-09-28T08:47:18.271Z,1033.18
2018-09-28T08:48:18.267Z,1033.23
2018-09-28T08:49:18.302Z,1033.29
2018-09-28T08:50:18.257Z,1033.49
2018-09-28T08:51:18.253Z,1033.44
2018-09-28T08:52:18.248Z,1033.52
2018-09-28T08:53:18.244Z,1033.56
2018-09-28T08:54:18.238Z,1033.67
2018-09-28T08:55:18.237Z,1033.7
2018-09-28T08:56:18.234Z,1033.67
2018-09-28T08:57:18.223Z,1033.65
2018-09-28T08:58:18.219Z,1033.62
2018-09-28T08:59:18.214Z,1033.61
2018-09-28T09:00:18.209Z,1033.52
2018-09-28T09:01:18.203Z,1033.41
2018-09-28T09:02:18.316Z,1033.3
2018-09-28T09:03:18.195Z,1033.16
2018-09-28T09:04:18.190Z,1033.07
2018-09-28T09:05:18.185Z,1033.11
2018-09-28T09:06:18.181Z,1033.09
2018-09-28T09:07:18.175Z,1033.21
2018-09-28T09:08:18.169Z,1033.23
2018-09-28T09:09:18.164Z,1033.36
2018-09-28T09:10:18.161Z,1033.42
2018-09-28T09:11:18.155Z,1033.38
2018-09-28T09:12:18.150Z,1033.46
2018-09-28T09:13:18.146Z,1033.45
2018-09-28T09:14:18.141Z,1033.46
2018-09-28T09:15:18.136Z,1033.54
2018-09-28T09:16:18.131Z,1033.39
2018-09-28T09:17:18.127Z,1033.24
2018-09-28T09:18:18.150Z,1033.02
2018-09-28T09:19:18.117Z,1032.77
2018-09-28T09:20:18.112Z,1032.56
2018-09-28T09:21:18.107Z,1032.33
2018-09-28T09:22:18.104Z,1032.21
2018-09-28T09:23:18.099Z,1032.18
2018-09-28T09:24:18.095Z,1032.2
2018-09-28T09:25:18.091Z,1032.19
2018-09-28T09:26:18.086Z,1032.03
2018-09-28T09:27:18.082Z,1032.03
2018-09-28T09:28:18.078Z,1031.93
2018-09-28T09:29:18.074Z,1031.86
2018-09-28T09:30:18.136Z,1031.97
2018-09-28T09:31:18.066Z,1031.94
2018-09-28T09:32:18.063Z,1032.02
2018-09-28T09:33:18.059Z,1031.97
2018-09-28T09:34:18.055Z,1031.88
2018-09-28T09:35:18.052Z,1031.84
2018-09-28T09:36:18.048Z,1031.82
2018-09-28T09:37:18.049Z,1031.83
2018-09-28T09:38:18.041Z,1031.91
2018-09-28T09:39:18.038Z,1031.93
2018-09-28T09:40:18.035Z,1031.96
2018-09-28T09:41:18.030Z,1032
2018-09-28T09:42:18.028Z,1032.01
2018-09-28T09:43:18.026Z,1032.06
2018-09-28T09:44:18.022Z,1032.06
2018-09-28T09:45:18.018Z,1032.16
2018-09-28T09:46:18.015Z,1032.32
2018-09-28T09:47:18.012Z,1032.45
2018-09-28T09:48:18.012Z,1032.62
2018-09-28T09:49:18.008Z,1032.71
2018-09-28T09:50:18.005Z,1032.78
2018-09-28T09:51:18.000Z,1032.75
2018-09-28T09:52:17.996Z,1032.7
2018-09-28T09:53:17.991Z,1032.7
2018-09-28T09:54:17.989Z,1032.66
2018-09-28T09:55:17.985Z,1032.51
2018-09-28T09:56:17.981Z,1032.47
2018-09-28T09:57:17.979Z,1032.41
2018-09-28T09:58:17.976Z,1032.37
2018-09-28T09:59:17.971Z,1032.44
2018-09-28T10:00:17.967Z,1032.29
2018-09-28T10:01:17.964Z,1032.23
2018-09-28T10:02:17.960Z,1032.25
2018-09-28T10:03:17.957Z,1032.25
2018-09-28T10:04:17.956Z,1032.19
2018-09-28T10:05:17.951Z,1032.22
2018-09-28T10:06:17.948Z,1032.21
2018-09-28T10:07:17.943Z,1032.26
2018-09-28T10:08:17.946Z,1032.21
2018-09-28T10:09:17.939Z,1032.21
2018-09-28T10:10:17.935Z,1032.23
2018-09-28T10:11:17.932Z,1032.15
2018-09-28T10:12:18.020Z,1032.11
2018-09-28T10:13:17.926Z,1032.1
2018-09-28T10:14:17.922Z,1032.11
2018-09-28T10:15:17.918Z,1032.13
2018-09-28T10:16:17.915Z,1032.1
2018-09-28T10:17:17.912Z,1032.14
2018-09-28T10:18:17.918Z,1032.25
2018-09-28T10:19:17.953Z,1032.46
2018-09-28T10:20:17.904Z,1032.5
2018-09-28T10:21:17.920Z,1032.53
2018-09-28T10:22:17.898Z,1032.6
2018-09-28T10:23:17.893Z,1032.64
2018-09-28T10:24:17.889Z,1032.66
2018-09-28T10:25:17.886Z,1032.71
2018-09-28T10:26:17.883Z,1032.68
2018-09-28T10:27:17.904Z,1032.83
2018-09-28T10:28:17.977Z,1032.83
2018-09-28T10:29:17.872Z,1032.79
2018-09-28T10:30:17.870Z,1032.83
2018-09-28T10:31:17.867Z,1032.85
2018-09-28T10:32:17.868Z,1032.79
2018-09-28T10:33:17.859Z,1032.84
2018-09-28T10:34:17.879Z,1032.82
2018-09-28T10:35:17.853Z,1032.8
2018-09-28T10:36:17.848Z,1032.78
2018-09-28T10:37:17.854Z,1032.8
2018-09-28T10:38:17.852Z,1032.68
2018-09-28T10:39:17.909Z,1032.63
2018-09-28T10:40:17.901Z,1032.57
2018-09-28T10:41:17.939Z,1032.42
2018-09-28T10:42:17.832Z,1032.34
2018-09-28T10:43:17.824Z,1032.37
2018-09-28T10:44:17.821Z,1032.42
2018-09-28T10:45:17.874Z,1032.5
2018-09-28T10:46:17.815Z,1032.49
2018-09-28T10:47:17.814Z,1032.5
2018-09-28T10:48:17.808Z,1032.56
2018-09-28T10:49:17.835Z,1032.59
2018-09-28T10:50:17.804Z,1032.67
2018-09-28T10:51:17.832Z,1032.69
2018-09-28T10:52:18.011Z,1032.77
2018-09-28T10:53:17.791Z,1032.82
2018-09-28T10:54:17.797Z,1032.79
2018-09-28T10:55:17.790Z,1032.65
2018-09-28T10:56:17.781Z,1032.64
2018-09-28T10:57:17.795Z,1032.62
2018-09-28T10:58:17.852Z,1032.65
2018-09-28T10:59:17.770Z,1032.69
2018-09-28T11:00:17.772Z,1032.66
2018-09-28T11:01:17.763Z,1032.71
2018-09-28T11:02:17.760Z,1032.73
2018-09-28T11:03:17.813Z,1032.61
2018-09-28T11:04:17.818Z,1032.58
2018-09-28T11:05:17.750Z,1032.48
2018-09-28T11:06:17.746Z,1032.5
2018-09-28T11:07:17.747Z,1032.51
2018-09-28T11:08:17.830Z,1032.6
2018-09-28T11:09:17.792Z,1032.67
2018-09-28T11:10:17.747Z,1032.81
2018-09-28T11:11:17.730Z,1032.94
2018-09-28T11:12:17.727Z,1033.02
2018-09-28T11:13:17.723Z,1033.13
2018-09-28T11:14:17.723Z,1033.31
2018-09-28T11:15:17.740Z,1033.48
2018-09-28T11:16:17.712Z,1033.55
2018-09-28T11:17:17.709Z,1033.67
2018-09-28T11:18:17.705Z,1033.62
2018-09-28T11:19:17.702Z,1033.6
2018-09-28T11:20:17.697Z,1033.67
2018-09-28T11:21:17.723Z,1033.62
2018-09-28T11:22:17.690Z,1033.71
2018-09-28T11:23:17.687Z,1033.73
2018-09-28T11:24:17.682Z,1033.75
2018-09-28T11:25:17.685Z,1033.79
2018-09-28T11:26:17.687Z,1033.81
2018-09-28T11:27:17.695Z,1033.83
2018-09-28T11:28:17.666Z,1033.83
2018-09-28T11:29:17.669Z,1033.88
2018-09-28T11:30:17.659Z,1033.93
2018-09-28T11:31:17.653Z,1033.91
2018-09-28T11:32:17.650Z,1033.94
2018-09-28T11:33:17.677Z,1033.96
2018-09-28T11:34:17.643Z,1033.97
2018-09-28T11:35:17.640Z,1033.93
2018-09-28T11:36:17.636Z,1034.04
2018-09-28T11:37:17.629Z,1034.03
2018-09-28T11:38:17.624Z,1034.07
2018-09-28T11:39:17.692Z,1034.09
2018-09-28T11:40:17.616Z,1034.08
2018-09-28T11:41:17.612Z,1034.16
2018-09-28T11:42:17.608Z,1034.12
2018-09-28T11:43:17.649Z,1034.01
2018-09-28T11:44:17.599Z,1034.04
2018-09-28T11:45:17.704Z,1033.96
2018-09-28T11:46:17.596Z,1033.9
2018-09-28T11:47:17.587Z,1033.79
2018-09-28T11:48:17.582Z,1033.69
2018-09-28T11:49:17.650Z,1033.59
2018-09-28T11:50:17.574Z,1033.4
2018-09-28T11:51:17.585Z,1033.27
2018-09-28T11:52:17.570Z,1033.17
2018-09-28T11:53:17.561Z,1033.01
2018-09-28T11:54:17.556Z,1032.99
2018-09-28T11:55:17.552Z,1032.9
2018-09-28T11:56:17.547Z,1032.85
2018-09-28T11:57:17.590Z,1033
2018-09-28T11:58:17.540Z,1033.09
2018-09-28T11:59:17.536Z,1033.09
2018-09-28T12:00:17.533Z,1033.13
2018-09-28T12:01:17.528Z,1033.12
2018-09-28T12:02:17.528Z,1033.12
2018-09-28T12:03:17.545Z,1033.14
2018-09-28T12:04:17.515Z,1033.16
2018-09-28T12:05:17.512Z,1033.14
2018-09-28T12:06:17.573Z,1033.07
2018-09-28T12:07:17.504Z,1032.99
2018-09-28T12:08:17.500Z,1032.96